createdAt,value
2022-12-29T00:01:42.521Z,99.90
2022-12-29T00:04:15.360Z,99.90
2022-12-29T00:06:43.744Z,99.90
2022-12-29T00:09:13.429Z,99.90
2022-12-29T00:11:40.638Z,99.90
2022-12-29T00:14:27.880Z,99.90
2022-12-29T00:16:54.648Z,99.90
2022-12-29T00:19:40.197Z,99.90
2022-12-29T00:22:25.399Z,99.90
2022-12-29T00:25:11.208Z,99.90
2022-12-29T00:28:00.298Z,99.90
2022-12-29T00:30:49.516Z,99.90
2022-12-29T00:33:37.279Z,99.90
2022-12-29T00:36:35.572Z,99.90
2022-12-29T00:39:29.830Z,99.90
2022-12-29T00:42:15.443Z,99.90
2022-12-29T00:44:42.676Z,99.90
2022-12-29T00:47:10.305Z,99.90
2022-12-29T00:49:37.078Z,99.90
2022-12-29T00:52:07.524Z,99.90
2022-12-29T00:54:36.839Z,99.90
2022-12-29T00:57:04.700Z,99.90
2022-12-29T00:59:31.440Z,99.90
2022-12-29T01:01:58.636Z,99.90
2022-12-29T01:04:26.698Z,99.90
2022-12-29T01:06:53.699Z,99.90
2022-12-29T01:09:40.045Z,99.90
2022-12-29T01:12:08.832Z,99.90
2022-12-29T01:14:35.692Z,99.90
2022-12-29T01:17:04.188Z,99.90
2022-12-29T01:19:31.256Z,99.90
2022-12-29T01:21:58.577Z,99.90
2022-12-29T01:24:27.126Z,99.90
2022-12-29T01:26:55.546Z,99.90
2022-12-29T01:29:22.588Z,99.90
2022-12-29T01:31:50.646Z,99.90
2022-12-29T01:34:18.257Z,99.90
2022-12-29T01:36:45.066Z,99.90
2022-12-29T01:39:13.114Z,99.90
2022-12-29T01:41:41.497Z,99.90
2022-12-29T01:44:48.410Z,99.90
2022-12-29T01:47:30.200Z,99.90
2022-12-29T01:50:02.124Z,99.90
2022-12-29T01:52:33.137Z,99.90
2022-12-29T01:55:02.481Z,99.90
2022-12-29T01:57:32.324Z,99.90
2022-12-29T02:00:14.619Z,99.90
2022-12-29T02:02:48.464Z,99.90
2022-12-29T02:05:41.869Z,99.90
2022-12-29T02:08:14.432Z,99.90
2022-12-29T02:10:43.147Z,99.90
2022-12-29T02:13:10.381Z,99.90
2022-12-29T02:15:59.593Z,99.90
2022-12-29T02:18:55.789Z,99.90
2022-12-29T02:21:56.574Z,99.90
2022-12-29T02:25:00.413Z,99.90
2022-12-29T02:27:49.167Z,99.90
2022-12-29T02:30:40.950Z,99.90
2022-12-29T02:33:37.366Z,99.90
2022-12-29T02:36:28.349Z,99.90
2022-12-29T02:39:12.061Z,99.90
2022-12-29T02:41:59.495Z,99.90
2022-12-29T02:44:53.572Z,99.90
2022-12-29T02:47:34.097Z,99.90
2022-12-29T02:50:08.091Z,99.90
2022-12-29T02:53:00.978Z,99.90
2022-12-29T02:55:27.976Z,99.90
2022-12-29T02:58:12.888Z,99.90
2022-12-29T03:01:07.007Z,99.90
2022-12-29T03:03:49.346Z,99.90
2022-12-29T03:06:26.625Z,99.90
2022-12-29T03:09:18.452Z,99.90
2022-12-29T03:12:09.668Z,99.90
2022-12-29T03:15:14.071Z,99.90
2022-12-29T03:17:51.283Z,99.90
2022-12-29T03:20:27.666Z,99.90
2022-12-29T03:23:01.670Z,99.90
2022-12-29T03:25:36.332Z,99.90
2022-12-29T03:28:11.572Z,99.90
2022-12-29T03:30:43.630Z,99.90
2022-12-29T03:33:16.749Z,99.90
2022-12-29T03:35:47.252Z,99.90
2022-12-29T03:38:20.692Z,99.90
2022-12-29T03:40:59.584Z,99.90
2022-12-29T03:43:30.647Z,99.90
2022-12-29T03:45:57.688Z,99.90
2022-12-29T03:48:24.835Z,99.90
2022-12-29T03:50:54.912Z,99.90
2022-12-29T03:53:22.931Z,99.90
2022-12-29T03:55:50.354Z,99.90
2022-12-29T03:58:17.309Z,99.90
2022-12-29T04:00:59.439Z,99.90
2022-12-29T04:03:26.317Z,99.90
2022-12-29T04:05:53.275Z,99.90
2022-12-29T04:08:20.278Z,99.90
2022-12-29T04:10:50.291Z,99.90
2022-12-29T04:13:21.238Z,99.90
2022-12-29T04:15:48.072Z,99.90
2022-12-29T04:18:14.749Z,99.90
2022-12-29T04:21:00.372Z,99.90
2022-12-29T04:23:29.267Z,99.90
2022-12-29T04:25:56.019Z,99.90
2022-12-29T04:28:22.834Z,99.90
2022-12-29T04:30:55.826Z,99.90
2022-12-29T04:33:25.683Z,99.90
2022-12-29T04:35:54.960Z,99.90
2022-12-29T04:38:24.363Z,99.90
2022-12-29T04:40:52.433Z,99.90
2022-12-29T04:43:25.142Z,99.90
2022-12-29T04:46:08.361Z,99.90
2022-12-29T04:48:58.012Z,99.90
2022-12-29T04:51:30.889Z,99.90
2022-12-29T04:53:57.579Z,99.90
2022-12-29T04:56:25.920Z,99.90
2022-12-29T04:58:52.778Z,99.90
2022-12-29T05:01:21.369Z,99.90
2022-12-29T05:03:50.565Z,99.90
2022-12-29T05:06:17.605Z,99.90
2022-12-29T05:08:46.091Z,99.90
2022-12-29T05:11:12.959Z,99.90
2022-12-29T05:13:39.815Z,99.90
2022-12-29T05:16:06.571Z,99.90
2022-12-29T05:18:33.459Z,99.90
2022-12-29T05:21:00.739Z,99.90
2022-12-29T05:23:28.524Z,99.90
2022-12-29T05:26:06.539Z,99.90
2022-12-29T05:29:11.606Z,99.90
2022-12-29T05:31:38.327Z,99.90
2022-12-29T05:34:06.557Z,99.90
2022-12-29T05:36:37.785Z,99.90
2022-12-29T05:39:08.688Z,99.90
2022-12-29T05:41:36.483Z,99.90
2022-12-29T05:44:22.853Z,99.90
2022-12-29T05:47:14.156Z,99.90
2022-12-29T05:50:02.690Z,99.90
2022-12-29T05:52:49.777Z,99.90
2022-12-29T05:55:17.074Z,99.90
2022-12-29T05:57:47.272Z,99.90
2022-12-29T06:00:16.371Z,99.90
2022-12-29T06:02:44.993Z,99.90
2022-12-29T06:05:12.003Z,99.90
2022-12-29T06:07:40.057Z,99.90
2022-12-29T06:10:07.714Z,99.90
2022-12-29T06:12:42.942Z,99.90
2022-12-29T06:15:10.074Z,99.90
2022-12-29T06:17:40.114Z,99.90
2022-12-29T06:20:07.840Z,99.90
2022-12-29T06:22:34.919Z,99.90
2022-12-29T06:25:05.104Z,99.90
2022-12-29T06:27:33.488Z,99.90
2022-12-29T06:30:00.901Z,99.90
2022-12-29T06:32:28.449Z,99.90
2022-12-29T06:35:00.615Z,99.90
2022-12-29T06:37:27.994Z,99.90
2022-12-29T06:39:54.744Z,99.90
2022-12-29T06:42:22.029Z,99.90
2022-12-29T06:45:08.284Z,99.90
2022-12-29T06:47:36.403Z,99.90
2022-12-29T06:50:03.818Z,99.90
2022-12-29T06:52:30.576Z,99.90
2022-12-29T06:54:57.256Z,99.90
2022-12-29T06:57:24.203Z,99.90
2022-12-29T06:59:51.111Z,99.90
2022-12-29T07:02:20.540Z,99.90
2022-12-29T07:04:47.435Z,99.90
2022-12-29T07:07:14.381Z,99.90
2022-12-29T07:09:41.114Z,99.90
2022-12-29T07:12:07.775Z,99.90
2022-12-29T07:14:40.768Z,99.90
2022-12-29T07:17:09.652Z,99.90
2022-12-29T07:19:36.509Z,99.90
2022-12-29T07:22:03.485Z,99.90
2022-12-29T07:24:30.992Z,99.90
2022-12-29T07:26:58.029Z,99.90
2022-12-29T07:29:25.287Z,99.90
2022-12-29T07:31:52.173Z,99.90
2022-12-29T07:34:19.302Z,99.90
2022-12-29T07:36:45.982Z,99.90
2022-12-29T07:39:12.767Z,99.90
2022-12-29T07:41:39.462Z,99.90
2022-12-29T07:44:11.252Z,99.90
2022-12-29T07:46:57.576Z,99.90
2022-12-29T07:49:24.818Z,99.90
2022-12-29T07:51:51.519Z,99.90
2022-12-29T07:54:19.257Z,99.90
2022-12-29T07:56:46.946Z,99.90
2022-12-29T07:59:13.975Z,99.90
2022-12-29T08:01:40.725Z,99.90
2022-12-29T08:04:07.944Z,99.90
2022-12-29T08:06:34.930Z,99.90
2022-12-29T08:09:09.894Z,99.90
2022-12-29T08:11:41.271Z,99.90
2022-12-29T08:14:08.342Z,99.90
2022-12-29T08:16:35.304Z,99.90
2022-12-29T08:19:02.510Z,99.90
2022-12-29T08:21:29.720Z,99.90
2022-12-29T08:23:56.814Z,99.90
2022-12-29T08:26:23.626Z,99.90
2022-12-29T08:28:54.373Z,99.90
2022-12-29T08:31:21.353Z,99.90
2022-12-29T08:33:48.082Z,99.90
2022-12-29T08:36:14.814Z,99.90
2022-12-29T08:38:41.538Z,99.90
2022-12-29T08:41:08.329Z,99.90
2022-12-29T08:43:35.050Z,99.90
2022-12-29T08:46:01.807Z,99.90
2022-12-29T08:48:28.539Z,99.90
2022-12-29T08:50:55.313Z,99.90
2022-12-29T08:53:22.035Z,99.90
2022-12-29T08:56:00.819Z,99.90
2022-12-29T08:58:33.747Z,99.90
2022-12-29T09:01:00.736Z,99.90
2022-12-29T09:06:16.363Z,99.90
2022-12-29T09:08:43.133Z,99.90
2022-12-29T09:11:11.205Z,99.90
2022-12-29T09:13:39.027Z,99.90
2022-12-29T09:16:06.400Z,99.90
2022-12-29T09:18:34.688Z,99.90
2022-12-29T09:21:03.879Z,99.90
2022-12-29T09:23:31.442Z,99.90
2022-12-29T09:25:58.164Z,99.90
2022-12-29T09:28:24.773Z,99.90
2022-12-29T09:30:51.719Z,99.90
2022-12-29T09:33:19.116Z,99.90
2022-12-29T09:35:50.732Z,99.90
2022-12-29T09:38:17.908Z,99.90
2022-12-29T09:40:50.167Z,99.90
2022-12-29T09:43:50.804Z,99.90
2022-12-29T09:46:29.884Z,99.90
2022-12-29T09:49:08.804Z,99.90
2022-12-29T09:51:41.180Z,99.90
2022-12-29T09:54:21.164Z,99.90
2022-12-29T09:56:49.953Z,99.90
2022-12-29T09:59:25.498Z,99.90
2022-12-29T10:02:15.740Z,99.90
2022-12-29T10:04:44.108Z,99.90
2022-12-29T10:07:29.681Z,99.50
2022-12-29T10:10:16.118Z,95.20
2022-12-29T10:12:55.299Z,89.20
2022-12-29T10:15:34.347Z,70.60
2022-12-29T10:18:25.128Z,67.80
2022-12-29T10:20:51.777Z,63.80
2022-12-29T10:23:34.714Z,60.60
2022-12-29T10:26:03.683Z,56.10
2022-12-29T10:28:40.516Z,54.00
2022-12-29T10:31:23.069Z,53.60
2022-12-29T10:33:59.454Z,52.80
2022-12-29T10:36:40.107Z,51.40
2022-12-29T10:39:35.125Z,51.00
2022-12-29T10:42:19.549Z,49.60
2022-12-29T10:44:46.376Z,48.80
2022-12-29T10:47:22.361Z,47.30
2022-12-29T10:49:50.035Z,49.00
2022-12-29T10:52:20.991Z,46.30
2022-12-29T10:55:11.133Z,47.60
2022-12-29T10:57:45.463Z,47.00
2022-12-29T11:00:21.774Z,47.20
2022-12-29T11:03:14.469Z,48.40
2022-12-29T11:05:51.042Z,49.50
2022-12-29T11:08:22.736Z,50.10
2022-12-29T11:11:01.141Z,50.10
2022-12-29T11:13:36.526Z,50.80
2022-12-29T11:16:05.868Z,51.40
2022-12-29T11:18:43.411Z,51.90
2022-12-29T11:21:28.545Z,53.40
2022-12-29T11:24:04.072Z,50.80
2022-12-29T11:26:34.425Z,50.00
2022-12-29T11:29:37.673Z,49.70
2022-12-29T11:32:13.818Z,50.70
2022-12-29T11:34:40.568Z,50.70
2022-12-29T11:37:17.422Z,50.90
2022-12-29T11:40:00.296Z,51.10
2022-12-29T11:42:52.880Z,51.00
2022-12-29T11:45:25.185Z,51.70
2022-12-29T11:47:55.788Z,52.60
2022-12-29T11:50:26.332Z,53.50
2022-12-29T11:53:04.506Z,54.60
2022-12-29T11:55:32.444Z,54.70
2022-12-29T11:58:03.233Z,55.60
2022-12-29T12:00:34.647Z,56.10
2022-12-29T12:03:23.950Z,56.60
2022-12-29T12:06:03.189Z,55.10
2022-12-29T12:08:42.245Z,56.20
2022-12-29T12:11:38.996Z,56.70
2022-12-29T12:14:27.530Z,57.10
2022-12-29T12:17:38.245Z,57.50
2022-12-29T12:20:40.637Z,57.50
2022-12-29T12:23:13.113Z,57.30
2022-12-29T12:26:01.231Z,56.90
2022-12-29T12:28:38.455Z,55.90
2022-12-29T12:31:16.461Z,56.40
2022-12-29T12:33:47.724Z,56.70
2022-12-29T12:36:38.251Z,60.40
2022-12-29T12:39:18.147Z,58.20
2022-12-29T12:42:06.497Z,65.00
2022-12-29T12:44:55.259Z,70.70
2022-12-29T12:47:34.233Z,70.60
2022-12-29T12:50:15.976Z,69.90
2022-12-29T12:53:13.024Z,74.20
2022-12-29T12:56:01.478Z,76.40
2022-12-29T12:58:54.724Z,76.30
2022-12-29T13:01:43.885Z,75.90
2022-12-29T13:04:22.734Z,75.60
2022-12-29T13:07:16.670Z,73.40
2022-12-29T13:09:46.091Z,76.50
2022-12-29T13:12:43.612Z,76.00
2022-12-29T13:15:37.894Z,77.50
2022-12-29T13:18:27.969Z,76.60
2022-12-29T13:21:18.455Z,74.60
2022-12-29T13:23:59.729Z,74.60
2022-12-29T13:26:36.701Z,76.60
2022-12-29T13:29:27.168Z,72.30
2022-12-29T13:32:12.898Z,65.20
2022-12-29T13:35:07.259Z,65.10
2022-12-29T13:37:42.267Z,61.50
2022-12-29T13:40:16.891Z,62.10
2022-12-29T13:42:44.470Z,63.10
2022-12-29T13:45:19.476Z,65.10
2022-12-29T13:48:17.660Z,64.70
2022-12-29T13:50:51.570Z,63.70
2022-12-29T13:53:43.936Z,65.20
2022-12-29T13:56:21.543Z,68.70
2022-12-29T13:59:06.678Z,70.60
2022-12-29T14:01:54.300Z,70.30
2022-12-29T14:04:29.772Z,69.30
2022-12-29T14:07:06.898Z,73.10
2022-12-29T14:09:54.636Z,75.90
2022-12-29T14:12:30.260Z,74.10
2022-12-29T14:15:12.065Z,75.50
2022-12-29T14:17:45.505Z,77.60
2022-12-29T14:20:22.072Z,85.30
2022-12-29T14:23:16.804Z,87.00
2022-12-29T14:25:52.636Z,92.70
2022-12-29T14:28:40.814Z,92.30
2022-12-29T14:31:19.290Z,95.60
2022-12-29T14:34:07.913Z,93.10
2022-12-29T14:36:37.608Z,90.00
2022-12-29T14:39:05.693Z,89.60
2022-12-29T14:41:37.237Z,91.20
2022-12-29T14:44:19.496Z,91.00
2022-12-29T14:46:56.927Z,88.60
2022-12-29T14:49:32.121Z,87.20
2022-12-29T14:52:19.902Z,90.00
2022-12-29T14:54:52.487Z,97.20
2022-12-29T14:57:29.463Z,92.40
2022-12-29T15:00:08.065Z,90.80
2022-12-29T15:02:43.483Z,91.70
2022-12-29T15:05:36.074Z,91.30
2022-12-29T15:08:04.577Z,92.10
2022-12-29T15:10:38.268Z,92.10
2022-12-29T15:13:14.851Z,94.50
2022-12-29T15:15:41.692Z,95.70
2022-12-29T15:18:27.898Z,97.60
2022-12-29T15:20:58.806Z,99.20
2022-12-29T15:23:26.611Z,99.70
2022-12-29T15:26:09.922Z,99.90
2022-12-29T15:28:41.079Z,99.90
2022-12-29T15:31:17.846Z,99.90
2022-12-29T15:33:50.728Z,99.90
2022-12-29T15:36:26.634Z,99.90
2022-12-29T15:38:54.470Z,97.50
2022-12-29T15:41:28.652Z,95.40
2022-12-29T15:44:01.250Z,94.10
2022-12-29T15:46:30.836Z,94.60
2022-12-29T15:48:57.899Z,95.90
2022-12-29T15:51:34.944Z,97.10
2022-12-29T15:54:01.983Z,99.70
2022-12-29T15:56:33.312Z,97.60
2022-12-29T15:59:01.309Z,98.90
2022-12-29T16:01:34.565Z,99.90
2022-12-29T16:04:06.458Z,99.90
2022-12-29T16:06:35.804Z,99.90
2022-12-29T16:09:17.565Z,99.90
2022-12-29T16:12:00.367Z,99.90
2022-12-29T16:14:47.051Z,99.90
2022-12-29T16:17:21.971Z,99.90
2022-12-29T16:19:54.077Z,99.90
2022-12-29T16:22:29.273Z,99.90
2022-12-29T16:25:05.630Z,99.90
2022-12-29T16:27:35.977Z,99.90
2022-12-29T16:30:07.325Z,99.30
2022-12-29T16:32:34.910Z,99.90
2022-12-29T16:35:14.702Z,99.90
2022-12-29T16:37:41.711Z,99.90
2022-12-29T16:40:31.816Z,99.90
2022-12-29T16:43:03.289Z,99.90
2022-12-29T16:46:08.178Z,99.90
2022-12-29T16:48:46.423Z,99.90
2022-12-29T16:51:15.129Z,99.90
2022-12-29T16:54:02.911Z,99.90
2022-12-29T16:56:32.974Z,99.90
2022-12-29T16:59:09.681Z,99.90
2022-12-29T17:01:40.798Z,99.90
2022-12-29T17:04:11.259Z,99.90
2022-12-29T17:06:38.566Z,99.90
2022-12-29T17:09:20.397Z,99.90
2022-12-29T17:12:02.532Z,99.90
2022-12-29T17:14:46.470Z,99.90
2022-12-29T17:17:35.142Z,99.90
2022-12-29T17:20:17.599Z,99.90
2022-12-29T17:22:45.084Z,99.90
2022-12-29T17:25:20.690Z,99.90
2022-12-29T17:27:51.200Z,99.90
2022-12-29T17:30:27.139Z,99.90
2022-12-29T17:33:09.072Z,99.90
2022-12-29T17:35:36.037Z,99.90
2022-12-29T17:38:02.833Z,99.90
2022-12-29T17:40:33.203Z,99.90
2022-12-29T17:43:00.432Z,99.90
2022-12-29T17:45:32.216Z,99.90
2022-12-29T17:48:02.675Z,99.90
2022-12-29T17:50:31.154Z,99.90
2022-12-29T17:53:01.657Z,99.90
2022-12-29T17:55:36.711Z,99.90
2022-12-29T17:58:25.478Z,99.90
2022-12-29T18:00:54.655Z,99.90
2022-12-29T18:03:30.350Z,99.90
2022-12-29T18:05:57.856Z,99.90
2022-12-29T18:08:24.697Z,99.90
2022-12-29T18:10:53.750Z,99.90
2022-12-29T18:13:33.716Z,99.90
2022-12-29T18:16:10.687Z,99.90
2022-12-29T18:18:38.174Z,99.90
2022-12-29T18:21:04.979Z,99.90
2022-12-29T18:23:34.882Z,99.90
2022-12-29T18:26:04.739Z,99.90
2022-12-29T18:28:31.749Z,99.90
2022-12-29T18:31:01.535Z,99.90
2022-12-29T18:33:29.059Z,99.90
2022-12-29T18:35:58.747Z,99.90
2022-12-29T18:38:26.413Z,99.90
2022-12-29T18:40:53.710Z,99.90
2022-12-29T18:43:21.047Z,99.90
2022-12-29T18:45:47.955Z,99.90
2022-12-29T18:48:14.960Z,99.90
2022-12-29T18:50:42.462Z,99.90
2022-12-29T18:53:16.717Z,99.90
2022-12-29T18:55:43.525Z,99.90
2022-12-29T18:58:10.176Z,99.90
2022-12-29T19:00:37.503Z,99.90
2022-12-29T19:03:04.538Z,99.90
2022-12-29T19:05:37.218Z,99.90
2022-12-29T19:08:04.883Z,99.90
2022-12-29T19:10:31.636Z,99.90
2022-12-29T19:12:58.428Z,99.90
2022-12-29T19:15:33.616Z,99.90
2022-12-29T19:18:41.598Z,99.90
2022-12-29T19:20:51.196Z,99.90
2022-12-29T19:23:21.320Z,99.90
2022-12-29T19:25:49.201Z,99.90
2022-12-29T19:28:23.704Z,99.90
2022-12-29T19:30:52.733Z,99.90
2022-12-29T19:33:21.340Z,99.90
2022-12-29T19:35:49.108Z,99.90
2022-12-29T19:38:16.464Z,99.90
2022-12-29T19:40:48.823Z,99.90
2022-12-29T19:43:15.806Z,99.90
2022-12-29T19:45:44.540Z,99.90
2022-12-29T19:48:20.348Z,99.90
2022-12-29T19:50:47.540Z,99.90
2022-12-29T19:53:15.146Z,99.90
2022-12-29T19:55:46.161Z,99.90
2022-12-29T19:58:14.033Z,99.90
2022-12-29T20:00:42.518Z,99.90
2022-12-29T20:03:10.211Z,99.90
2022-12-29T20:05:37.471Z,99.90
2022-12-29T20:08:04.542Z,99.90
2022-12-29T20:10:31.414Z,99.90
2022-12-29T20:12:58.155Z,99.90
2022-12-29T20:15:24.886Z,99.90
2022-12-29T20:20:38.433Z,99.90
2022-12-29T20:23:05.272Z,99.90
2022-12-29T20:25:47.975Z,99.90
2022-12-29T20:28:16.826Z,99.90
2022-12-29T20:30:43.972Z,99.90
2022-12-29T20:33:10.909Z,99.90
2022-12-29T20:35:37.890Z,99.90
2022-12-29T20:38:05.348Z,99.90
2022-12-29T20:40:32.486Z,99.90
2022-12-29T20:42:59.203Z,99.90
2022-12-29T20:45:26.249Z,99.90
2022-12-29T20:47:53.069Z,99.90
2022-12-29T20:50:19.930Z,99.90
2022-12-29T20:52:46.762Z,99.90
2022-12-29T20:55:13.862Z,99.90
2022-12-29T20:58:21.462Z,99.90
2022-12-29T21:00:30.214Z,99.90
2022-12-29T21:02:57.804Z,99.90
2022-12-29T21:05:25.630Z,99.90
2022-12-29T21:07:53.791Z,99.90
2022-12-29T21:10:21.595Z,99.90
2022-12-29T21:12:48.691Z,99.90
2022-12-29T21:15:15.788Z,99.90
2022-12-29T21:17:43.413Z,99.90
2022-12-29T21:20:20.044Z,99.90
2022-12-29T21:22:48.421Z,99.90
2022-12-29T21:25:15.254Z,99.90
2022-12-29T21:27:45.026Z,99.90
2022-12-29T21:30:12.611Z,99.90
2022-12-29T21:32:40.611Z,99.90
2022-12-29T21:35:08.279Z,99.90
2022-12-29T21:37:35.874Z,99.90
2022-12-29T21:40:04.675Z,99.90
2022-12-29T21:42:31.838Z,99.90
2022-12-29T21:45:20.711Z,99.90
2022-12-29T21:48:07.221Z,99.90
2022-12-29T21:50:57.145Z,99.90
2022-12-29T21:53:23.914Z,99.90
2022-12-29T21:55:54.167Z,99.90
2022-12-29T21:58:39.567Z,99.90
2022-12-29T22:01:25.059Z,99.90
2022-12-29T22:04:10.791Z,99.90
2022-12-29T22:06:56.279Z,99.90
2022-12-29T22:09:43.984Z,99.90
2022-12-29T22:12:29.291Z,99.90
2022-12-29T22:14:55.954Z,99.90
2022-12-29T22:17:27.806Z,99.90
2022-12-29T22:19:55.427Z,99.90
2022-12-29T22:22:22.197Z,99.90
2022-12-29T22:24:48.805Z,99.90
2022-12-29T22:27:15.709Z,99.90
2022-12-29T22:29:42.489Z,99.90
2022-12-29T22:32:09.120Z,99.90
2022-12-29T22:34:35.778Z,99.90
2022-12-29T22:37:02.464Z,99.90
2022-12-29T22:39:29.079Z,99.90
2022-12-29T22:41:55.736Z,99.90
2022-12-29T22:44:22.579Z,99.90
2022-12-29T22:46:49.314Z,99.90
2022-12-29T22:49:16.056Z,99.90
2022-12-29T22:51:42.660Z,99.90
2022-12-29T22:54:09.301Z,99.90
2022-12-29T22:56:41.834Z,99.90
2022-12-29T22:59:10.197Z,99.90
2022-12-29T23:01:36.924Z,99.90
2022-12-29T23:04:45.471Z,99.90
2022-12-29T23:06:50.595Z,99.90
2022-12-29T23:09:19.667Z,99.90
2022-12-29T23:11:47.223Z,99.90
2022-12-29T23:14:13.931Z,99.90
2022-12-29T23:16:41.203Z,99.90
2022-12-29T23:19:08.115Z,99.90
2022-12-29T23:21:34.774Z,99.90
2022-12-29T23:24:04.516Z,99.90
2022-12-29T23:26:37.383Z,99.90
2022-12-29T23:29:07.365Z,99.90
2022-12-29T23:31:35.057Z,99.90
2022-12-29T23:34:03.491Z,99.90
2022-12-29T23:36:31.416Z,99.90
2022-12-29T23:38:58.658Z,99.90
2022-12-29T23:41:26.068Z,99.90
2022-12-29T23:43:53.023Z,99.90
2022-12-29T23:46:23.676Z,99.90
2022-12-29T23:48:50.554Z,99.90
2022-12-29T23:51:17.799Z,99.90
2022-12-29T23:53:45.111Z,99.90
2022-12-29T23:56:16.374Z,99.90
2022-12-29T23:58:43.566Z,99.90
